createdAt,value
2022-11-05T00:01:09.382Z,10.25
2022-11-05T00:02:24.244Z,10.12
2022-11-05T00:03:39.290Z,10.19
2022-11-05T00:04:54.274Z,10.16
2022-11-05T00:06:12.003Z,10.11
2022-11-05T00:07:34.427Z,9.83
2022-11-05T00:08:49.918Z,9.71
2022-11-05T00:09:47.207Z,9.85
2022-11-05T00:10:43.853Z,9.86
2022-11-05T00:12:00.689Z,9.92
2022-11-05T00:13:17.957Z,9.63
2022-11-05T00:14:33.264Z,9.60
2022-11-05T00:15:48.409Z,9.42
2022-11-05T00:16:45.027Z,9.57
2022-11-05T00:17:41.808Z,9.68
2022-11-05T00:18:38.547Z,9.61
2022-11-05T00:19:35.094Z,9.75
2022-11-05T00:20:31.689Z,9.77
2022-11-05T00:21:46.611Z,9.81
2022-11-05T00:23:01.291Z,9.69
2022-11-05T00:24:19.252Z,9.60
2022-11-05T00:25:22.127Z,9.81
2022-11-05T00:26:18.693Z,10.02
2022-11-05T00:27:15.250Z,9.63
2022-11-05T00:28:11.778Z,10.43
2022-11-05T00:29:08.366Z,10.29
2022-11-05T00:30:05.599Z,10.30
2022-11-05T00:31:09.826Z,10.35
2022-11-05T00:32:06.571Z,10.26
2022-11-05T00:33:03.597Z,10.04
2022-11-05T00:34:00.193Z,10.06
2022-11-05T00:34:56.761Z,10.02
2022-11-05T00:35:53.366Z,9.96
2022-11-05T00:36:49.944Z,10.14
2022-11-05T00:37:50.034Z,10.33
2022-11-05T00:38:47.181Z,10.19
2022-11-05T00:39:43.737Z,10.12
2022-11-05T00:40:40.350Z,10.02
2022-11-05T00:41:36.898Z,9.80
2022-11-05T00:42:52.013Z,9.90
2022-11-05T00:44:07.146Z,9.96
2022-11-05T00:45:05.685Z,10.09
2022-11-05T00:46:02.340Z,9.91
2022-11-05T00:47:18.860Z,9.70
2022-11-05T00:48:33.857Z,9.66
2022-11-05T00:49:30.416Z,9.84
2022-11-05T00:50:27.631Z,9.74
2022-11-05T00:51:24.183Z,9.66
2022-11-05T00:52:39.210Z,10.18
2022-11-05T00:53:35.990Z,10.12
2022-11-05T00:54:32.585Z,10.33
2022-11-05T00:55:38.490Z,10.28
2022-11-05T00:56:35.029Z,10.27
2022-11-05T00:57:31.640Z,10.13
2022-11-05T00:58:29.289Z,10.45
2022-11-05T00:59:25.850Z,10.51
2022-11-05T01:00:23.959Z,10.30
2022-11-05T01:01:20.611Z,10.19
2022-11-05T01:02:17.423Z,10.53
2022-11-05T01:03:16.398Z,10.11
2022-11-05T01:04:12.983Z,10.22
2022-11-05T01:05:09.556Z,10.17
2022-11-05T01:06:17.236Z,10.06
2022-11-05T01:07:13.776Z,10.25
2022-11-05T01:08:11.726Z,10.11
2022-11-05T01:09:08.337Z,10.33
2022-11-05T01:10:05.445Z,10.24
2022-11-05T01:11:09.665Z,10.10
2022-11-05T01:12:06.425Z,9.93
2022-11-05T01:13:03.013Z,9.91
2022-11-05T01:14:02.597Z,9.83
2022-11-05T01:14:59.426Z,9.69
2022-11-05T01:15:56.996Z,9.67
2022-11-05T01:16:53.591Z,9.83
2022-11-05T01:17:52.282Z,9.38
2022-11-05T01:18:48.885Z,9.76
2022-11-05T01:19:45.443Z,9.74
2022-11-05T01:20:42.121Z,9.76
2022-11-05T01:21:38.890Z,9.80
2022-11-05T01:22:35.536Z,9.71
2022-11-05T01:23:32.070Z,9.71
2022-11-05T01:24:28.646Z,9.80
2022-11-05T01:25:25.225Z,9.74
2022-11-05T01:26:21.976Z,9.93
2022-11-05T01:27:18.689Z,9.97
2022-11-05T01:28:15.356Z,9.47
2022-11-05T01:29:12.063Z,9.76
2022-11-05T01:30:09.355Z,9.72
2022-11-05T01:31:06.055Z,9.86
2022-11-05T01:32:02.587Z,9.88
2022-11-05T01:32:59.242Z,9.47
2022-11-05T01:33:55.791Z,9.74
2022-11-05T01:34:52.353Z,9.34
2022-11-05T01:35:51.710Z,9.77
2022-11-05T01:36:48.288Z,10.11
2022-11-05T01:37:44.947Z,10.09
2022-11-05T01:38:41.579Z,9.91
2022-11-05T01:39:38.117Z,9.79
2022-11-05T01:40:34.743Z,9.91
2022-11-05T01:41:31.346Z,9.54
2022-11-05T01:42:28.638Z,9.78
2022-11-05T01:43:25.428Z,9.83
2022-11-05T01:44:57.410Z,9.73
2022-11-05T01:45:58.618Z,10.20
2022-11-05T01:46:55.278Z,10.25
2022-11-05T01:48:08.151Z,10.17
2022-11-05T01:49:14.194Z,10.27
2022-11-05T01:50:44.762Z,10.34
2022-11-05T01:51:43.771Z,10.13
2022-11-05T01:52:40.530Z,10.01
2022-11-05T01:53:42.528Z,9.74
2022-11-05T01:54:39.103Z,10.05
2022-11-05T01:55:41.110Z,10.09
2022-11-05T01:56:45.964Z,10.17
2022-11-05T01:57:42.573Z,10.05
2022-11-05T01:59:02.089Z,9.67
2022-11-05T02:00:01.391Z,9.72
2022-11-05T02:00:57.984Z,9.63
2022-11-05T02:01:55.096Z,9.63
2022-11-05T02:02:51.868Z,9.52
2022-11-05T02:03:50.632Z,9.30
2022-11-05T02:04:56.725Z,9.26
2022-11-05T02:05:55.433Z,9.42
2022-11-05T02:06:53.170Z,9.64
2022-11-05T02:07:50.180Z,9.59
2022-11-05T02:09:07.817Z,9.47
2022-11-05T02:10:06.166Z,9.58
2022-11-05T02:11:03.993Z,9.80
2022-11-05T02:12:00.849Z,9.89
2022-11-05T02:12:57.544Z,9.95
2022-11-05T02:13:54.468Z,9.66
2022-11-05T02:14:51.177Z,8.98
2022-11-05T02:16:07.856Z,9.42
2022-11-05T02:17:13.542Z,9.36
2022-11-05T02:18:26.837Z,9.32
2022-11-05T02:19:44.405Z,9.52
2022-11-05T02:20:58.033Z,9.80
2022-11-05T02:22:21.904Z,9.91
2022-11-05T02:24:01.386Z,9.65
2022-11-05T02:25:19.502Z,9.51
2022-11-05T02:26:36.551Z,9.30
2022-11-05T02:27:43.282Z,9.30
2022-11-05T02:29:08.421Z,9.19
2022-11-05T02:30:07.425Z,8.90
2022-11-05T02:31:31.160Z,9.20
2022-11-05T02:32:35.554Z,9.12
2022-11-05T02:33:57.130Z,9.19
2022-11-05T02:35:22.657Z,9.15
2022-11-05T02:37:02.857Z,9.11
2022-11-05T02:38:13.243Z,9.64
2022-11-05T02:39:09.899Z,9.87
2022-11-05T02:40:19.126Z,9.68
2022-11-05T02:41:41.154Z,9.66
2022-11-05T02:42:44.466Z,10.18
2022-11-05T02:43:59.816Z,9.76
2022-11-05T02:45:11.183Z,9.54
2022-11-05T02:46:13.419Z,9.31
2022-11-05T02:47:22.041Z,9.21
2022-11-05T02:48:39.188Z,8.98
2022-11-05T02:49:54.089Z,9.01
2022-11-05T02:50:58.133Z,9.02
2022-11-05T02:52:01.316Z,8.85
2022-11-05T02:53:42.482Z,9.11
2022-11-05T02:54:42.061Z,9.23
2022-11-05T02:56:01.088Z,9.14
2022-11-05T02:57:00.434Z,9.42
2022-11-05T02:57:59.790Z,9.51
2022-11-05T02:58:56.373Z,9.45
2022-11-05T03:00:42.092Z,9.51
2022-11-05T03:01:41.353Z,9.53
2022-11-05T03:02:38.281Z,9.29
2022-11-05T03:03:48.498Z,9.76
2022-11-05T03:04:45.134Z,9.56
2022-11-05T03:05:55.604Z,9.44
2022-11-05T03:07:38.014Z,9.34
2022-11-05T03:08:58.681Z,9.29
2022-11-05T03:09:58.177Z,9.58
2022-11-05T03:11:17.649Z,9.42
2022-11-05T03:12:35.599Z,9.26
2022-11-05T03:14:03.825Z,9.39
2022-11-05T03:15:39.618Z,9.27
2022-11-05T03:16:41.678Z,9.34
2022-11-05T03:17:44.011Z,9.43
2022-11-05T03:18:47.867Z,9.32
2022-11-05T03:20:01.855Z,9.33
2022-11-05T03:21:01.475Z,9.04
2022-11-05T03:22:04.315Z,9.12
2022-11-05T03:23:03.674Z,9.27
2022-11-05T03:24:11.578Z,9.34
2022-11-05T03:25:16.041Z,9.89
2022-11-05T03:26:24.462Z,9.74
2022-11-05T03:27:29.181Z,9.81
2022-11-05T03:28:29.663Z,9.88
2022-11-05T03:29:33.130Z,9.97
2022-11-05T03:30:32.386Z,10.04
2022-11-05T03:31:30.966Z,9.99
2022-11-05T03:32:31.723Z,9.93
2022-11-05T03:33:31.705Z,9.84
2022-11-05T03:34:34.749Z,9.84
2022-11-05T03:35:40.068Z,9.85
2022-11-05T03:36:42.513Z,9.89
2022-11-05T03:37:40.832Z,10.06
2022-11-05T03:38:41.686Z,10.07
2022-11-05T03:39:43.645Z,9.99
2022-11-05T03:40:42.761Z,10.02
2022-11-05T03:41:43.372Z,10.16
2022-11-05T03:42:46.373Z,10.13
2022-11-05T03:43:48.178Z,10.15
2022-11-05T03:44:49.502Z,10.07
2022-11-05T03:45:56.146Z,10.24
2022-11-05T03:46:56.931Z,10.23
2022-11-05T03:47:57.475Z,10.14
2022-11-05T03:48:57.745Z,9.93
2022-11-05T03:50:00.267Z,10.05
2022-11-05T03:51:02.690Z,9.96
2022-11-05T03:52:06.295Z,10.11
2022-11-05T03:53:15.332Z,10.26
2022-11-05T03:54:12.921Z,10.38
2022-11-05T03:55:10.427Z,10.45
2022-11-05T03:56:12.965Z,10.34
2022-11-05T03:57:09.384Z,10.32
2022-11-05T03:58:06.332Z,10.22
2022-11-05T03:59:05.024Z,10.14
2022-11-05T04:00:01.716Z,10.11
2022-11-05T04:01:02.217Z,10.30
2022-11-05T04:01:58.876Z,10.37
2022-11-05T04:02:55.937Z,10.36
2022-11-05T04:03:52.553Z,10.31
2022-11-05T04:04:49.193Z,10.04
2022-11-05T04:06:05.977Z,10.24
2022-11-05T04:07:21.450Z,10.17
2022-11-05T04:08:36.600Z,10.48
2022-11-05T04:09:51.402Z,10.52
2022-11-05T04:11:06.261Z,10.25
2022-11-05T04:12:21.675Z,10.22
2022-11-05T04:13:24.213Z,10.16
2022-11-05T04:14:20.823Z,10.03
2022-11-05T04:15:17.497Z,9.82
2022-11-05T04:16:32.627Z,10.15
2022-11-05T04:17:29.293Z,10.19
2022-11-05T04:18:26.037Z,9.99
2022-11-05T04:19:40.888Z,10.08
2022-11-05T04:20:56.091Z,10.04
2022-11-05T04:22:11.282Z,10.38
2022-11-05T04:23:26.280Z,10.30
2022-11-05T04:24:22.830Z,10.45
2022-11-05T04:25:20.715Z,10.11
2022-11-05T04:26:17.295Z,10.18
2022-11-05T04:27:13.877Z,10.04
2022-11-05T04:28:10.579Z,9.90
2022-11-05T04:29:26.210Z,9.87
2022-11-05T04:30:23.046Z,9.92
2022-11-05T04:31:19.577Z,9.98
2022-11-05T04:32:16.129Z,9.82
2022-11-05T04:33:17.303Z,10.05
2022-11-05T04:34:14.533Z,10.07
2022-11-05T04:35:11.103Z,10.13
2022-11-05T04:36:07.911Z,9.92
2022-11-05T04:37:04.453Z,9.84
2022-11-05T04:38:01.996Z,9.98
2022-11-05T04:38:58.553Z,10.01
2022-11-05T04:39:55.153Z,9.87
2022-11-05T04:40:51.747Z,9.78
2022-11-05T04:41:48.842Z,9.67
2022-11-05T04:42:45.448Z,9.66
2022-11-05T04:43:42.363Z,9.68
2022-11-05T04:44:38.910Z,9.69
2022-11-05T04:45:36.062Z,9.67
2022-11-05T04:46:32.655Z,9.52
2022-11-05T04:47:29.197Z,9.53
2022-11-05T04:48:25.801Z,9.47
2022-11-05T04:49:22.356Z,9.44
2022-11-05T04:50:19.086Z,9.35
2022-11-05T04:51:15.725Z,8.95
2022-11-05T04:52:12.287Z,9.32
2022-11-05T04:53:09.028Z,9.27
2022-11-05T04:54:05.980Z,9.33
2022-11-05T04:55:02.598Z,9.38
2022-11-05T04:56:22.289Z,9.44
2022-11-05T04:57:18.871Z,9.38
2022-11-05T04:58:15.431Z,9.32
2022-11-05T04:59:12.009Z,9.35
2022-11-05T05:00:09.404Z,9.17
2022-11-05T05:01:06.060Z,9.31
2022-11-05T05:02:02.819Z,9.21
2022-11-05T05:02:59.447Z,9.24
2022-11-05T05:03:56.176Z,9.15
2022-11-05T05:04:52.773Z,9.23
2022-11-05T05:05:52.892Z,9.32
2022-11-05T05:06:50.337Z,9.34
2022-11-05T05:07:47.018Z,9.28
2022-11-05T05:08:43.687Z,9.71
2022-11-05T05:09:40.290Z,9.67
2022-11-05T05:10:36.884Z,9.65
2022-11-05T05:11:33.600Z,9.87
2022-11-05T05:12:30.180Z,9.80
2022-11-05T05:13:27.091Z,9.87
2022-11-05T05:14:23.662Z,9.85
2022-11-05T05:15:20.246Z,9.98
2022-11-05T05:16:21.278Z,9.93
2022-11-05T05:17:17.854Z,9.92
2022-11-05T05:18:14.434Z,9.72
2022-11-05T05:19:10.992Z,9.68
2022-11-05T05:20:26.375Z,9.88
2022-11-05T05:21:42.252Z,9.91
2022-11-05T05:22:38.834Z,9.69
2022-11-05T05:23:35.386Z,10.09
2022-11-05T05:24:32.018Z,10.23
2022-11-05T05:25:28.606Z,10.40
2022-11-05T05:26:25.190Z,10.53
2022-11-05T05:27:22.878Z,9.96
2022-11-05T05:28:19.434Z,10.44
2022-11-05T05:29:16.582Z,10.48
2022-11-05T05:30:13.381Z,10.50
2022-11-05T05:31:09.928Z,10.42
2022-11-05T05:32:07.022Z,10.52
2022-11-05T05:33:04.650Z,10.52
2022-11-05T05:34:01.489Z,10.81
2022-11-05T05:34:58.030Z,10.76
2022-11-05T05:35:58.069Z,10.62
2022-11-05T05:36:54.787Z,10.63
2022-11-05T05:37:55.664Z,10.45
2022-11-05T05:38:52.567Z,10.54
2022-11-05T05:39:49.830Z,10.62
2022-11-05T05:40:46.399Z,10.69
2022-11-05T05:41:42.936Z,10.65
2022-11-05T05:42:43.052Z,10.53
2022-11-05T05:43:39.892Z,10.73
2022-11-05T05:44:36.790Z,10.90
2022-11-05T05:45:35.622Z,10.99
2022-11-05T05:46:32.174Z,10.82
2022-11-05T05:47:28.752Z,10.94
2022-11-05T05:48:25.392Z,10.64
2022-11-05T05:49:21.978Z,10.92
2022-11-05T05:50:18.554Z,11.05
2022-11-05T05:51:15.123Z,11.03
2022-11-05T05:52:11.762Z,10.77
2022-11-05T05:53:09.076Z,11.18
2022-11-05T05:54:05.873Z,11.42
2022-11-05T05:55:02.433Z,11.54
2022-11-05T05:55:59.473Z,11.28
2022-11-05T05:56:56.201Z,10.82
2022-11-05T05:57:53.858Z,11.22
2022-11-05T05:58:50.475Z,11.18
2022-11-05T05:59:47.131Z,11.19
2022-11-05T06:00:43.785Z,11.43
2022-11-05T06:01:40.639Z,11.24
2022-11-05T06:02:37.520Z,11.39
2022-11-05T06:03:34.494Z,11.28
2022-11-05T06:04:31.102Z,11.40
2022-11-05T06:05:27.710Z,11.46
2022-11-05T06:06:24.268Z,11.71
2022-11-05T06:07:20.789Z,11.72
2022-11-05T06:08:17.392Z,11.68
2022-11-05T06:09:14.801Z,11.62
2022-11-05T06:10:11.476Z,11.62
2022-11-05T06:11:08.950Z,11.72
2022-11-05T06:12:05.856Z,11.67
2022-11-05T06:13:02.743Z,11.61
2022-11-05T06:13:59.390Z,11.71
2022-11-05T06:14:55.976Z,11.83
2022-11-05T06:15:52.790Z,11.84
2022-11-05T06:16:49.420Z,11.94
2022-11-05T06:17:46.475Z,11.91
2022-11-05T06:18:43.047Z,11.69
2022-11-05T06:19:39.631Z,12.22
2022-11-05T06:20:36.161Z,12.26
2022-11-05T06:21:33.089Z,12.24
2022-11-05T06:22:29.621Z,12.19
2022-11-05T06:23:26.197Z,12.12
2022-11-05T06:24:22.734Z,11.95
2022-11-05T06:25:19.273Z,12.19
2022-11-05T06:33:29.809Z,12.42
2022-11-05T06:34:26.349Z,12.68
2022-11-05T06:35:22.995Z,12.56
2022-11-05T06:36:20.467Z,12.73
2022-11-05T06:37:17.028Z,12.75
2022-11-05T06:38:13.738Z,12.94
2022-11-05T06:39:11.795Z,12.72
2022-11-05T06:40:09.292Z,12.89
2022-11-05T06:41:10.317Z,12.70
2022-11-05T06:42:22.583Z,12.54
2022-11-05T06:43:19.179Z,12.64
2022-11-05T06:44:15.769Z,12.54
2022-11-05T06:45:12.293Z,12.69
2022-11-05T06:46:10.589Z,12.41
2022-11-05T06:47:07.242Z,12.34
2022-11-05T06:48:03.980Z,12.56
2022-11-05T06:49:00.692Z,12.34
2022-11-05T06:49:57.500Z,12.54
2022-11-05T06:50:54.299Z,12.52
2022-11-05T06:51:51.937Z,12.55
2022-11-05T06:52:59.357Z,12.46
2022-11-05T06:53:55.930Z,12.42
2022-11-05T06:54:52.491Z,12.28
2022-11-05T06:55:49.073Z,12.24
2022-11-05T06:56:45.679Z,12.40
2022-11-05T06:57:42.248Z,12.47
2022-11-05T06:58:38.847Z,12.56
2022-11-05T06:59:36.311Z,12.54
2022-11-05T07:00:32.927Z,12.50
2022-11-05T07:01:29.743Z,12.11
2022-11-05T07:02:26.437Z,12.68
2022-11-05T07:03:23.035Z,12.48
2022-11-05T07:04:19.578Z,12.40
2022-11-05T07:05:17.082Z,12.62
2022-11-05T07:06:13.706Z,12.49
2022-11-05T07:07:10.554Z,12.75
2022-11-05T07:08:07.270Z,12.85
2022-11-05T07:09:04.408Z,12.88
2022-11-05T07:10:00.972Z,12.71
2022-11-05T07:10:57.572Z,12.66
2022-11-05T07:11:54.697Z,13.11
2022-11-05T07:12:51.645Z,12.96
2022-11-05T07:13:48.283Z,12.77
2022-11-05T07:14:44.877Z,12.81
2022-11-05T07:15:41.566Z,12.85
2022-11-05T07:16:38.170Z,13.05
2022-11-05T07:17:34.729Z,13.07
2022-11-05T07:18:31.358Z,13.13
2022-11-05T07:19:27.944Z,13.09
2022-11-05T07:20:28.227Z,13.26
2022-11-05T07:21:29.171Z,12.91
2022-11-05T07:22:25.708Z,13.26
2022-11-05T07:23:22.295Z,13.16
2022-11-05T07:24:18.838Z,13.27
2022-11-05T07:25:15.397Z,13.44
2022-11-05T07:26:11.998Z,13.46
2022-11-05T07:27:08.578Z,13.33
2022-11-05T07:28:05.506Z,13.43
2022-11-05T07:29:02.204Z,13.64
2022-11-05T07:29:58.755Z,13.71
2022-11-05T07:30:55.408Z,13.61
2022-11-05T07:31:52.005Z,13.67
2022-11-05T07:32:48.637Z,13.85
2022-11-05T07:33:45.215Z,13.72
2022-11-05T07:34:41.765Z,14.15
2022-11-05T07:35:38.371Z,14.33
2022-11-05T07:36:34.995Z,14.47
2022-11-05T07:37:31.571Z,14.37
2022-11-05T07:38:28.215Z,14.06
2022-11-05T07:39:24.829Z,14.36
2022-11-05T07:40:23.493Z,14.16
2022-11-05T07:41:20.133Z,14.01
2022-11-05T07:42:16.858Z,14.02
2022-11-05T07:43:13.768Z,14.23
2022-11-05T07:44:11.715Z,14.32
2022-11-05T07:45:08.813Z,14.28
2022-11-05T07:46:07.585Z,13.82
2022-11-05T07:47:08.082Z,14.07
2022-11-05T07:48:05.466Z,14.08
2022-11-05T07:49:02.289Z,14.10
2022-11-05T07:49:58.878Z,14.07
2022-11-05T07:50:55.473Z,13.80
2022-11-05T07:51:52.058Z,14.11
2022-11-05T07:52:49.311Z,14.20
2022-11-05T07:53:48.184Z,14.43
2022-11-05T07:54:44.786Z,14.52
2022-11-05T07:55:42.220Z,14.68
2022-11-05T07:56:38.852Z,14.70
2022-11-05T07:57:48.998Z,14.98
2022-11-05T07:58:45.573Z,14.71
2022-11-05T07:59:42.134Z,14.80
2022-11-05T08:00:39.157Z,14.91
2022-11-05T08:01:35.957Z,14.86
2022-11-05T08:02:32.835Z,14.76
2022-11-05T08:03:29.734Z,14.67
2022-11-05T08:04:26.438Z,15.35
2022-11-05T08:05:23.132Z,15.63
2022-11-05T08:06:19.720Z,15.37
2022-11-05T08:07:16.238Z,15.49
2022-11-05T08:08:17.875Z,15.58
2022-11-05T08:09:14.423Z,15.78
2022-11-05T08:10:10.973Z,16.13
2022-11-05T08:11:09.846Z,16.37
2022-11-05T08:12:06.918Z,16.29
2022-11-05T08:13:04.810Z,16.24
2022-11-05T08:14:01.444Z,15.95
2022-11-05T08:14:58.061Z,15.90
2022-11-05T08:15:57.489Z,16.28
2022-11-05T08:16:54.042Z,16.25
2022-11-05T08:17:50.861Z,16.39
2022-11-05T08:18:48.346Z,16.29
2022-11-05T08:19:44.893Z,15.97
2022-11-05T08:20:43.132Z,16.24
2022-11-05T08:21:39.679Z,15.90
2022-11-05T08:22:36.318Z,15.79
2022-11-05T08:23:33.535Z,16.53
2022-11-05T08:24:30.115Z,16.58
2022-11-05T08:25:27.231Z,16.58
2022-11-05T08:26:23.822Z,16.63
2022-11-05T08:27:20.402Z,17.15
2022-11-05T08:28:17.082Z,17.36
2022-11-05T08:29:13.657Z,17.18
2022-11-05T08:30:10.707Z,17.78
2022-11-05T08:31:07.318Z,17.86
2022-11-05T08:32:03.922Z,17.20
2022-11-05T08:33:06.884Z,16.94
2022-11-05T08:34:03.466Z,17.54
2022-11-05T08:35:00.020Z,17.37
2022-11-05T08:35:57.024Z,17.78
2022-11-05T08:36:53.592Z,17.89
2022-11-05T08:37:50.156Z,17.18
2022-11-05T08:38:46.703Z,17.31
2022-11-05T08:39:43.253Z,16.92
2022-11-05T08:40:40.623Z,16.95
2022-11-05T08:41:37.182Z,17.16
2022-11-05T08:42:33.761Z,17.14
2022-11-05T08:43:30.373Z,17.29
2022-11-05T08:44:26.974Z,17.73
2022-11-05T08:45:26.061Z,17.82
2022-11-05T08:46:22.824Z,17.80
2022-11-05T08:47:19.445Z,17.91
2022-11-05T08:48:18.173Z,18.01
2022-11-05T08:49:14.797Z,18.00
2022-11-05T08:50:11.343Z,17.77
2022-11-05T08:51:07.996Z,17.37
2022-11-05T08:52:04.780Z,17.40
2022-11-05T08:53:01.703Z,17.42
2022-11-05T08:53:58.314Z,17.57
2022-11-05T08:54:55.255Z,17.80
2022-11-05T08:55:51.876Z,17.69
2022-11-05T08:56:48.438Z,17.67
2022-11-05T08:57:48.294Z,17.73
2022-11-05T08:58:44.951Z,17.80
2022-11-05T08:59:41.492Z,17.56
2022-11-05T09:00:39.048Z,17.70
2022-11-05T09:01:35.857Z,17.66
2022-11-05T09:02:32.632Z,17.32
2022-11-05T09:03:29.303Z,17.59
2022-11-05T09:04:28.650Z,17.92
2022-11-05T09:05:25.215Z,17.75
2022-11-05T09:06:22.023Z,18.27
2022-11-05T09:07:18.698Z,18.00
2022-11-05T09:08:18.049Z,18.11
2022-11-05T09:09:14.611Z,17.85
2022-11-05T09:10:11.190Z,17.88
2022-11-05T09:11:07.806Z,17.37
2022-11-05T09:12:13.096Z,17.54
2022-11-05T09:13:16.486Z,17.41
2022-11-05T09:14:14.675Z,17.18
2022-11-05T09:15:11.785Z,17.29
2022-11-05T09:16:19.135Z,17.26
2022-11-05T09:17:18.816Z,17.27
2022-11-05T09:18:16.348Z,16.82
2022-11-05T09:19:12.977Z,16.84
2022-11-05T09:20:11.477Z,16.54
2022-11-05T09:21:08.269Z,17.23
2022-11-05T09:22:04.908Z,16.71
2022-11-05T09:23:01.538Z,16.80
2022-11-05T09:23:58.109Z,16.65
2022-11-05T09:24:54.715Z,16.74
2022-11-05T09:25:51.289Z,16.75
2022-11-05T09:26:48.062Z,16.92
2022-11-05T09:27:44.790Z,16.70
2022-11-05T09:28:43.315Z,16.80
2022-11-05T09:29:42.779Z,16.79
2022-11-05T09:30:41.498Z,16.69
2022-11-05T09:31:38.040Z,16.89
2022-11-05T09:32:34.584Z,16.59
2022-11-05T09:33:31.139Z,16.69
2022-11-05T09:34:28.092Z,16.75
2022-11-05T09:35:24.688Z,16.78
2022-11-05T09:36:21.254Z,17.04
2022-11-05T09:37:17.810Z,16.78
2022-11-05T09:38:14.697Z,17.03
2022-11-05T09:39:11.275Z,16.98
2022-11-05T09:40:08.160Z,16.88
2022-11-05T09:41:07.833Z,16.84
2022-11-05T09:42:07.727Z,16.86
2022-11-05T09:43:06.654Z,17.19
2022-11-05T09:44:10.429Z,17.18
2022-11-05T09:45:15.780Z,16.98
2022-11-05T09:46:28.860Z,16.58
2022-11-05T09:47:35.004Z,17.33
2022-11-05T09:48:32.880Z,17.50
2022-11-05T09:49:40.047Z,17.70
2022-11-05T09:50:44.364Z,16.97
2022-11-05T09:51:41.320Z,17.21
2022-11-05T09:52:38.551Z,17.28
2022-11-05T09:53:40.199Z,17.10
2022-11-05T09:54:37.922Z,17.13
2022-11-05T09:55:41.427Z,17.00
2022-11-05T09:56:40.924Z,17.26
2022-11-05T09:57:49.001Z,17.09
2022-11-05T09:58:51.755Z,16.91
2022-11-05T09:59:57.861Z,16.96
2022-11-05T10:00:54.727Z,17.27
2022-11-05T10:01:56.432Z,17.11
2022-11-05T10:02:57.336Z,17.53
2022-11-05T10:03:58.367Z,17.56
2022-11-05T10:05:04.879Z,17.14
2022-11-05T10:06:09.343Z,17.44
2022-11-05T10:07:11.646Z,17.34
2022-11-05T10:08:17.743Z,17.29
2022-11-05T10:09:26.706Z,17.59
2022-11-05T10:10:30.610Z,17.72
2022-11-05T10:11:37.957Z,17.39
2022-11-05T10:12:34.453Z,17.55
2022-11-05T10:14:01.246Z,17.48
2022-11-05T10:15:13.484Z,17.42
2022-11-05T10:16:25.263Z,17.27
2022-11-05T10:17:26.635Z,17.52
2022-11-05T10:18:32.656Z,17.69
2022-11-05T10:19:47.265Z,17.45
2022-11-05T10:20:45.025Z,17.57
2022-11-05T10:22:05.435Z,17.29
2022-11-05T10:23:08.888Z,17.09
2022-11-05T10:24:20.175Z,17.46
2022-11-05T10:25:22.096Z,17.32
2022-11-05T10:26:21.869Z,16.78
2022-11-05T10:27:23.578Z,17.19
2022-11-05T10:28:26.238Z,17.12
2022-11-05T10:29:29.299Z,17.04
2022-11-05T10:30:26.086Z,17.12
2022-11-05T10:31:23.649Z,16.84
2022-11-05T10:32:40.356Z,17.33
2022-11-05T10:33:50.098Z,17.60
2022-11-05T10:34:47.132Z,17.22
2022-11-05T10:35:51.210Z,17.48
2022-11-05T10:36:48.458Z,17.34
2022-11-05T10:37:46.767Z,17.39
2022-11-05T10:38:43.419Z,17.36
2022-11-05T10:39:39.979Z,17.67
2022-11-05T10:40:55.367Z,17.56
2022-11-05T10:42:00.956Z,17.49
2022-11-05T10:43:21.799Z,17.34
2022-11-05T10:44:52.477Z,17.50
2022-11-05T10:45:55.389Z,17.56
2022-11-05T10:46:57.917Z,17.77
2022-11-05T10:48:00.420Z,17.93
2022-11-05T10:49:24.779Z,17.74
2022-11-05T10:50:29.862Z,17.31
2022-11-05T10:51:26.827Z,17.46
2022-11-05T10:52:35.955Z,17.49
2022-11-05T10:53:35.680Z,17.38
2022-11-05T10:54:35.228Z,17.54
2022-11-05T10:55:43.377Z,17.64
2022-11-05T10:56:41.261Z,17.57
2022-11-05T10:57:40.365Z,17.49
2022-11-05T10:58:40.237Z,17.59
2022-11-05T10:59:36.935Z,17.42
2022-11-05T11:00:33.625Z,17.53
2022-11-05T11:01:31.020Z,17.83
2022-11-05T11:02:30.453Z,17.82
2022-11-05T11:03:41.369Z,18.14
2022-11-05T11:04:38.397Z,17.83
2022-11-05T11:05:39.057Z,18.27
2022-11-05T11:06:39.111Z,18.14
2022-11-05T11:07:36.257Z,17.75
2022-11-05T11:08:35.700Z,17.89
2022-11-05T11:09:36.312Z,17.56
2022-11-05T11:10:47.984Z,17.42
2022-11-05T11:11:44.955Z,17.72
2022-11-05T11:12:43.642Z,17.86
2022-11-05T11:13:58.280Z,17.65
2022-11-05T11:15:04.510Z,17.67
2022-11-05T11:16:24.020Z,17.69
2022-11-05T11:17:27.885Z,18.04
2022-11-05T11:18:40.304Z,18.19
2022-11-05T11:19:37.143Z,18.16
2022-11-05T11:20:34.042Z,18.26
2022-11-05T11:21:32.791Z,18.30
2022-11-05T11:22:29.391Z,18.53
2022-11-05T11:23:26.028Z,18.56
2022-11-05T11:24:29.660Z,18.44
2022-11-05T11:25:41.526Z,18.78
2022-11-05T11:26:40.354Z,18.58
2022-11-05T11:27:37.865Z,18.34
2022-11-05T11:28:47.867Z,18.60
2022-11-05T11:30:00.828Z,18.60
2022-11-05T11:31:04.509Z,17.81
2022-11-05T11:32:01.221Z,17.88
2022-11-05T11:33:11.822Z,18.08
2022-11-05T11:34:14.465Z,18.18
2022-11-05T11:35:25.871Z,18.23
2022-11-05T11:36:32.233Z,18.49
2022-11-05T11:37:33.412Z,18.37
2022-11-05T11:38:33.070Z,18.28
2022-11-05T11:39:31.633Z,18.31
2022-11-05T11:40:37.964Z,18.26
2022-11-05T11:41:42.041Z,18.34
2022-11-05T11:42:41.417Z,18.43
2022-11-05T11:43:41.649Z,18.63
2022-11-05T11:44:44.687Z,18.81
2022-11-05T11:45:51.138Z,18.60
2022-11-05T11:46:53.321Z,18.17
2022-11-05T11:47:53.435Z,18.11
2022-11-05T11:48:50.197Z,18.45
2022-11-05T11:49:52.557Z,18.17
2022-11-05T11:50:50.177Z,17.89
2022-11-05T11:51:49.968Z,18.23
2022-11-05T11:52:46.922Z,18.48
2022-11-05T11:53:43.754Z,18.75
2022-11-05T11:54:40.361Z,18.56
2022-11-05T11:55:36.964Z,18.34
2022-11-05T11:56:44.653Z,18.18
2022-11-05T11:57:54.652Z,18.05
2022-11-05T11:58:56.137Z,18.05
2022-11-05T12:00:08.201Z,18.00
2022-11-05T12:01:24.671Z,18.28
2022-11-05T12:02:33.321Z,18.27
2022-11-05T12:03:42.803Z,18.14
2022-11-05T12:04:42.241Z,18.32
2022-11-05T12:06:07.123Z,18.13
2022-11-05T12:07:27.662Z,18.19
2022-11-05T12:08:44.381Z,18.02
2022-11-05T12:10:04.381Z,17.99
2022-11-05T12:11:08.560Z,17.99
2022-11-05T12:12:11.592Z,17.80
2022-11-05T12:13:23.150Z,17.87
2022-11-05T12:14:45.185Z,17.93
2022-11-05T12:16:03.557Z,17.69
2022-11-05T12:17:07.353Z,17.63
2022-11-05T12:18:07.533Z,17.75
2022-11-05T12:19:29.368Z,17.61
2022-11-05T12:20:38.308Z,17.60
2022-11-05T12:21:58.665Z,17.88
2022-11-05T12:23:22.800Z,17.57
2022-11-05T12:24:31.326Z,17.53
2022-11-05T12:25:48.992Z,17.37
2022-11-05T12:27:03.254Z,17.38
2022-11-05T12:28:23.086Z,17.05
2022-11-05T12:29:34.446Z,17.46
2022-11-05T12:30:47.451Z,17.42
2022-11-05T12:31:49.819Z,17.54
2022-11-05T12:32:58.556Z,17.63
2022-11-05T12:34:20.736Z,17.57
2022-11-05T12:35:53.329Z,17.48
2022-11-05T12:37:28.701Z,17.52
2022-11-05T12:38:44.109Z,17.53
2022-11-05T12:39:47.472Z,17.42
2022-11-05T12:41:02.460Z,17.42
2022-11-05T12:42:13.879Z,17.29
2022-11-05T12:43:31.236Z,17.11
2022-11-05T12:44:40.991Z,17.19
2022-11-05T12:45:40.446Z,17.17
2022-11-05T12:46:57.999Z,17.13
2022-11-05T12:48:01.495Z,17.36
2022-11-05T12:49:33.058Z,17.27
2022-11-05T12:50:38.366Z,17.65
2022-11-05T12:51:40.614Z,17.50
2022-11-05T12:52:58.704Z,17.34
2022-11-05T12:54:17.011Z,17.25
2022-11-05T12:55:22.247Z,17.36
2022-11-05T12:56:26.822Z,16.94
2022-11-05T12:57:23.609Z,17.31
2022-11-05T12:58:26.532Z,17.22
2022-11-05T13:00:09.151Z,17.51
2022-11-05T13:01:35.412Z,17.40
2022-11-05T13:02:47.302Z,17.37
2022-11-05T13:03:59.043Z,17.23
2022-11-05T13:05:04.130Z,17.32
2022-11-05T13:06:12.685Z,17.25
2022-11-05T13:07:14.942Z,17.10
2022-11-05T13:08:20.407Z,17.14
2022-11-05T13:09:23.706Z,17.12
2022-11-05T13:10:25.421Z,16.97
2022-11-05T13:11:34.801Z,17.18
2022-11-05T13:12:35.902Z,17.17
2022-11-05T13:13:39.777Z,16.97
2022-11-05T13:14:44.161Z,17.19
2022-11-05T13:15:49.629Z,17.06
2022-11-05T13:16:50.755Z,17.21
2022-11-05T13:17:59.887Z,17.33
2022-11-05T13:19:02.781Z,17.23
2022-11-05T13:20:03.773Z,17.13
2022-11-05T13:21:05.366Z,16.92
2022-11-05T13:22:15.899Z,17.05
2022-11-05T13:23:21.368Z,17.07
2022-11-05T13:24:23.694Z,17.03
2022-11-05T13:25:21.674Z,17.01
2022-11-05T13:26:26.878Z,16.63
2022-11-05T13:28:03.646Z,16.96
2022-11-05T13:29:23.142Z,16.97
2022-11-05T13:30:38.261Z,16.81
2022-11-05T13:31:43.241Z,16.75
2022-11-05T13:32:44.828Z,16.86
2022-11-05T13:33:44.585Z,16.63
2022-11-05T13:34:41.252Z,16.83